Huvudsida
METAR-TAF:

METAR-TAF

Flygplatser :

Kajana flygplats

Kajana, Finland

latitud: 64-17N, longitud: 027-41E, höjd: 143 m

Aktuellt väderrapport

Denna rapport gjordes för 34 minuter sedan, klockan 09:20 UTC
Vind 11 kt från nord/nordväst, varierande mellan väst/nordväst och nord
Temperatur 4°C
Fuktighet 65%
Tryck 1019 hPa
Sikt 10 km eller mer
Mulet på en höjd av 3400 ft

METAR: EFKI 230920Z AUTO 34011KT 300V010 9999 OVC034 04/M02 Q1019

Tid: 12:54 (09:54 UTC)

Väderprognos

Denna rapport gjordes för 1 timme och 26 minuter sedan, klockan 08:28 UTC
Prognos gäller från 23 kl. 09 UTC till 23 kl. 18 UTC
Vind 9 kt från nord/nordväst
Sikt 10 km eller mer
Brutna moln på en höjd av 3000 ft

TAF: EFKI 230828Z 2309/2318 34009KT 9999 BKN030

Aktuella väderrapporter och prognoser från 4000 flygplatser (METAR- och TAF-rapporter).

De tillgängliga stationerna syns som gula och röda prickar på kartan.

För musen över prickarna för att se namnen på stationerna.

Klicka sedan för att få väderrapporter och prognoser.

För att ändra kartan: Klicka på de gröna knapparna med ett svart kors på för att zooma in; den gröna knappen med ett streck på för att zooma ut; eller på de gröna pilarna för angränsande kartor.


METAR-TAF: